sensor_id;sensor_type;location;lat;lon;timestamp;pressure;altitude;pressure_sealevel;temperature;humidity
11468;BME280;5790;42.762;23.430;2023-04-01T00:01:13;72784.25;;;-142.66;79.33
11468;BME280;5790;42.762;23.430;2023-04-01T00:03:42;72767.94;;;-142.66;78.95
11468;BME280;5790;42.762;23.430;2023-04-01T00:06:11;72753.66;;;-142.66;78.72
11468;BME280;5790;42.762;23.430;2023-04-01T00:08:39;72729.16;;;-142.66;77.97
11468;BME280;5790;42.762;23.430;2023-04-01T00:11:06;72706.69;;;-142.66;77.73
11468;BME280;5790;42.762;23.430;2023-04-01T00:13:35;72692.41;;;-142.66;76.81
11468;BME280;5790;42.762;23.430;2023-04-01T00:16:03;72682.22;;;-142.66;76.30
11468;BME280;5790;42.762;23.430;2023-04-01T00:18:31;72649.56;;;-142.66;76.02
11468;BME280;5790;42.762;23.430;2023-04-01T00:20:58;72641.38;;;-142.66;76.75
11468;BME280;5790;42.762;23.430;2023-04-01T00:23:25;72643.44;;;-142.66;76.66
11468;BME280;5790;42.762;23.430;2023-04-01T00:25:52;72623.03;;;-142.66;76.11
11468;BME280;5790;42.762;23.430;2023-04-01T00:28:20;72602.63;;;-142.66;74.80
11468;BME280;5790;42.762;23.430;2023-04-01T00:30:48;72592.41;;;-142.66;75.03
11468;BME280;5790;42.762;23.430;2023-04-01T00:33:16;72590.38;;;-142.66;74.72
11468;BME280;5790;42.762;23.430;2023-04-01T00:35:43;72590.38;;;-142.66;75.62
11468;BME280;5790;42.762;23.430;2023-04-01T00:38:10;72592.41;;;-142.66;75.60
11468;BME280;5790;42.762;23.430;2023-04-01T00:40:40;72612.81;;;-142.66;76.36
11468;BME280;5790;42.762;23.430;2023-04-01T00:43:12;72639.34;;;-142.66;77.32
11468;BME280;5790;42.762;23.430;2023-04-01T00:45:41;72616.91;;;-142.66;77.14
11468;BME280;5790;42.762;23.430;2023-04-01T00:48:14;72643.44;;;-142.66;78.57
11468;BME280;5790;42.762;23.430;2023-04-01T00:50:44;72645.47;;;-142.66;78.65
11468;BME280;5790;42.762;23.430;2023-04-01T00:53:13;72639.34;;;-142.66;78.59
11468;BME280;5790;42.762;23.430;2023-04-01T00:55:45;72663.84;;;-142.66;79.28
11468;BME280;5790;42.762;23.430;2023-04-01T00:58:17;72667.91;;;-142.66;79.35
11468;BME280;5790;42.762;23.430;2023-04-01T01:00:47;72659.75;;;-142.66;78.90
11468;BME280;5790;42.762;23.430;2023-04-01T01:03:17;72663.84;;;-142.66;78.86
11468;BME280;5790;42.762;23.430;2023-04-01T01:06:08;72692.41;;;-142.66;79.91
11468;BME280;5790;42.762;23.430;2023-04-01T01:09:09;72729.16;;;-142.66;82.05
11468;BME280;5790;42.762;23.430;2023-04-01T01:11:42;72729.16;;;-142.66;82.13
11468;BME280;5790;42.762;23.430;2023-04-01T01:14:22;72769.97;;;-142.66;84.00
11468;BME280;5790;42.762;23.430;2023-04-01T01:16:55;72835.28;;;-142.66;86.59
11468;BME280;5790;42.762;23.430;2023-04-01T01:19:47;72837.31;;;-142.66;88.07
11468;BME280;5790;42.762;23.430;2023-04-01T01:22:34;72855.69;;;-142.66;88.50
11468;BME280;5790;42.762;23.430;2023-04-01T01:25:31;72867.94;;;-142.66;88.14
11468;BME280;5790;42.762;23.430;2023-04-01T01:28:17;72880.19;;;-142.66;88.58
11468;BME280;5790;42.762;23.430;2023-04-01T01:30:53;72898.56;;;-142.66;89.76
11468;BME280;5790;42.762;23.430;2023-04-01T01:33:45;72896.50;;;-142.66;90.95
11468;BME280;5790;42.762;23.430;2023-04-01T01:36:20;72898.56;;;-142.66;91.08
11468;BME280;5790;42.762;23.430;2023-04-01T01:38:48;72914.88;;;-142.66;91.05
11468;BME280;5790;42.762;23.430;2023-04-01T01:41:18;72914.88;;;-142.66;90.36
11468;BME280;5790;42.762;23.430;2023-04-01T01:43:48;72916.94;;;-142.66;90.27
11468;BME280;5790;42.762;23.430;2023-04-01T01:46:19;72896.50;;;-142.66;90.86
11468;BME280;5790;42.762;23.430;2023-04-01T01:48:48;72896.50;;;-142.66;91.48
11468;BME280;5790;42.762;23.430;2023-04-01T01:51:19;72894.47;;;-142.66;91.54
11468;BME280;5790;42.762;23.430;2023-04-01T01:53:48;72900.59;;;-142.66;91.70
11468;BME280;5790;42.762;23.430;2023-04-01T01:56:18;72898.56;;;-142.66;90.84
11468;BME280;5790;42.762;23.430;2023-04-01T01:58:49;72906.72;;;-142.66;90.13
11468;BME280;5790;42.762;23.430;2023-04-01T02:01:22;72898.56;;;-142.66;89.08
11468;BME280;5790;42.762;23.430;2023-04-01T02:03:51;72888.34;;;-142.66;88.55
11468;BME280;5790;42.762;23.430;2023-04-01T02:06:22;72869.97;;;-142.66;87.80
11468;BME280;5790;42.762;23.430;2023-04-01T02:08:52;72853.66;;;-142.66;87.33
11468;BME280;5790;42.762;23.430;2023-04-01T02:11:26;72829.16;;;-142.66;86.45
11468;BME280;5790;42.762;23.430;2023-04-01T02:13:56;72814.88;;;-142.66;85.04
11468;BME280;5790;42.762;23.430;2023-04-01T02:16:30;72804.66;;;-142.66;84.71
11468;BME280;5790;42.762;23.430;2023-04-01T02:19:01;72788.34;;;-142.66;84.47
11468;BME280;5790;42.762;23.430;2023-04-01T02:21:35;72769.97;;;-142.66;83.74
11468;BME280;5790;42.762;23.430;2023-04-01T02:24:06;72774.06;;;-142.66;83.00
11468;BME280;5790;42.762;23.430;2023-04-01T02:26:35;72776.09;;;-142.66;83.92
11468;BME280;5790;42.762;23.430;2023-04-01T02:29:03;72749.56;;;-142.66;83.23
11468;BME280;5790;42.762;23.430;2023-04-01T02:31:32;72733.22;;;-142.66;82.38
11468;BME280;5790;42.762;23.430;2023-04-01T02:34:02;72729.16;;;-142.66;81.75
11468;BME280;5790;42.762;23.430;2023-04-01T02:36:30;72712.81;;;-142.66;80.78
11468;BME280;5790;42.762;23.430;2023-04-01T02:39:00;72702.63;;;-142.66;80.77
11468;BME280;5790;42.762;23.430;2023-04-01T02:41:30;72696.50;;;-142.66;80.43
11468;BME280;5790;42.762;23.430;2023-04-01T02:43:57;72686.28;;;-142.66;79.87
11468;BME280;5790;42.762;23.430;2023-04-01T02:46:25;72723.03;;;-142.66;80.65
11468;BME280;5790;42.762;23.430;2023-04-01T02:48:52;72741.41;;;-142.66;81.76
11468;BME280;5790;42.762;23.430;2023-04-01T02:51:20;72761.81;;;-142.66;82.45
11468;BME280;5790;42.762;23.430;2023-04-01T02:53:47;72755.69;;;-142.66;82.48
11468;BME280;5790;42.762;23.430;2023-04-01T02:56:16;72751.59;;;-142.66;82.69
11468;BME280;5790;42.762;23.430;2023-04-01T02:58:45;72749.56;;;-142.66;82.47
11468;BME280;5790;42.762;23.430;2023-04-01T03:01:12;72757.72;;;-142.66;82.95
11468;BME280;5790;42.762;23.430;2023-04-01T03:03:40;72774.06;;;-142.66;83.84
11468;BME280;5790;42.762;23.430;2023-04-01T03:06:09;72782.22;;;-142.66;84.62
11468;BME280;5790;42.762;23.430;2023-04-01T03:08:36;72814.88;;;-142.66;86.21
11468;BME280;5790;42.762;23.430;2023-04-01T03:11:04;72790.38;;;-142.66;86.29
11468;BME280;5790;42.762;23.430;2023-04-01T03:13:33;72808.75;;;-142.66;86.97
11468;BME280;5790;42.762;23.430;2023-04-01T03:16:00;72782.22;;;-142.66;87.14
11468;BME280;5790;42.762;23.430;2023-04-01T03:18:28;72767.94;;;-142.66;86.70
11468;BME280;5790;42.762;23.430;2023-04-01T03:20:55;72759.75;;;-142.66;87.05
11468;BME280;5790;42.762;23.430;2023-04-01T03:23:22;72759.75;;;-142.66;87.05
11468;BME280;5790;42.762;23.430;2023-04-01T03:25:50;72765.88;;;-142.66;88.21
11468;BME280;5790;42.762;23.430;2023-04-01T03:28:17;72774.06;;;-142.66;89.22
11468;BME280;5790;42.762;23.430;2023-04-01T03:30:46;72778.13;;;-142.66;89.90
11468;BME280;5790;42.762;23.430;2023-04-01T03:33:13;72776.09;;;-142.66;90.46
11468;BME280;5790;42.762;23.430;2023-04-01T03:35:40;72780.19;;;-142.66;91.87
11468;BME280;5790;42.762;23.430;2023-04-01T03:38:08;72774.06;;;-142.66;92.29
11468;BME280;5790;42.762;23.430;2023-04-01T03:40:35;72751.59;;;-142.66;91.59
11468;BME280;5790;42.762;23.430;2023-04-01T03:43:03;72741.41;;;-142.66;90.71
11468;BME280;5790;42.762;23.430;2023-04-01T03:45:33;72741.41;;;-142.66;90.96
11468;BME280;5790;42.762;23.430;2023-04-01T03:48:02;72725.06;;;-142.66;90.33
11468;BME280;5790;42.762;23.430;2023-04-01T03:50:30;72702.63;;;-142.66;89.32
11468;BME280;5790;42.762;23.430;2023-04-01T03:52:57;72700.56;;;-142.66;89.45
11468;BME280;5790;42.762;23.430;2023-04-01T03:55:24;72696.50;;;-142.66;90.10
11468;BME280;5790;42.762;23.430;2023-04-01T03:57:52;72704.66;;;-142.66;91.40
11468;BME280;5790;42.762;23.430;2023-04-01T04:00:19;72684.25;;;-142.66;90.75
11468;BME280;5790;42.762;23.430;2023-04-01T04:02:46;72678.13;;;-142.66;90.50
11468;BME280;5790;42.762;23.430;2023-04-01T04:05:15;72708.75;;;-142.66;91.43
11468;BME280;5790;42.762;23.430;2023-04-01T04:07:42;72696.50;;;-142.66;91.93
11468;BME280;5790;42.762;23.430;2023-04-01T04:10:10;72702.63;;;-142.66;91.32
11468;BME280;5790;42.762;23.430;2023-04-01T04:12:37;72745.47;;;-142.66;95.40
11468;BME280;5790;42.762;23.430;2023-04-01T04:15:06;72774.06;;;-142.66;98.19
11468;BME280;5790;42.762;23.430;2023-04-01T04:17:33;72788.34;;;-142.66;99.79
11468;BME280;5790;42.762;23.430;2023-04-01T04:20:01;72765.88;;;-142.66;99.74
11468;BME280;5790;42.762;23.430;2023-04-01T04:22:29;72767.94;;;-142.66;100.00
11468;BME280;5790;42.762;23.430;2023-04-01T04:24:57;72784.25;;;-142.66;100.00
11468;BME280;5790;42.762;23.430;2023-04-01T04:27:24;72786.31;;;-142.66;100.00
11468;BME280;5790;42.762;23.430;2023-04-01T04:29:51;72780.19;;;-142.66;100.00
11468;BME280;5790;42.762;23.430;2023-04-01T04:32:18;72761.81;;;-142.66;100.00
11468;BME280;5790;42.762;23.430;2023-04-01T04:34:45;72741.41;;;-142.66;100.00
11468;BME280;5790;42.762;23.430;2023-04-01T04:37:13;72720.97;;;-142.66;99.88
11468;BME280;5790;42.762;23.430;2023-04-01T04:39:41;72696.50;;;-142.66;99.13
11468;BME280;5790;42.762;23.430;2023-04-01T04:42:08;72672.00;;;-142.66;97.57
11468;BME280;5790;42.762;23.430;2023-04-01T04:44:36;72663.84;;;-142.66;97.64
11468;BME280;5790;42.762;23.430;2023-04-01T04:47:03;72661.81;;;-142.66;97.53
11468;BME280;5790;42.762;23.430;2023-04-01T04:49:31;72657.72;;;-142.66;97.42
11468;BME280;5790;42.762;23.430;2023-04-01T04:51:58;72659.75;;;-142.66;97.17
11468;BME280;5790;42.762;23.430;2023-04-01T04:54:25;72637.31;;;-142.66;95.87
11468;BME280;5790;42.762;23.430;2023-04-01T04:56:54;72637.31;;;-142.66;95.88
11468;BME280;5790;42.762;23.430;2023-04-01T04:59:21;72620.97;;;-142.66;94.07
11468;BME280;5790;42.762;23.430;2023-04-01T05:01:48;72604.66;;;-142.66;93.12
11468;BME280;5790;42.762;23.430;2023-04-01T05:04:16;72576.09;;;-142.66;92.20
11468;BME280;5790;42.762;23.430;2023-04-01T05:06:43;72547.50;;;-142.66;91.78
11468;BME280;5790;42.762;23.430;2023-04-01T05:09:11;72529.13;;;-142.66;91.01
11468;BME280;5790;42.762;23.430;2023-04-01T05:11:38;72510.78;;;-142.66;89.83
11468;BME280;5790;42.762;23.430;2023-04-01T05:14:12;72510.78;;;-142.66;88.34
11468;BME280;5790;42.762;23.430;2023-04-01T05:16:39;72510.78;;;-142.66;88.06
11468;BME280;5790;42.762;23.430;2023-04-01T05:19:06;72514.84;;;-142.66;88.13
11468;BME280;5790;42.762;23.430;2023-04-01T05:21:34;72535.25;;;-142.66;88.80
11468;BME280;5790;42.762;23.430;2023-04-01T05:24:01;72543.44;;;-142.66;89.14
11468;BME280;5790;42.762;23.430;2023-04-01T05:26:28;72555.66;;;-142.66;88.69
11468;BME280;5790;42.762;23.430;2023-04-01T05:28:56;72565.88;;;-142.66;89.48
11468;BME280;5790;42.762;23.430;2023-04-01T05:31:24;72549.56;;;-142.66;89.21
11468;BME280;5790;42.762;23.430;2023-04-01T05:33:52;72525.06;;;-142.66;89.18
11468;BME280;5790;42.762;23.430;2023-04-01T05:36:19;72516.91;;;-142.66;87.98
11468;BME280;5790;42.762;23.430;2023-04-01T05:38:47;72518.94;;;-142.66;88.23
11468;BME280;5790;42.762;23.430;2023-04-01T05:41:14;72488.31;;;-142.66;87.70
11468;BME280;5790;42.762;23.430;2023-04-01T05:43:42;72463.84;;;-142.66;86.10
11468;BME280;5790;42.762;23.430;2023-04-01T05:46:09;72463.84;;;-142.66;86.67
11468;BME280;5790;42.762;23.430;2023-04-01T05:48:38;72459.75;;;-142.66;85.71
11468;BME280;5790;42.762;23.430;2023-04-01T05:51:06;72451.59;;;-142.66;85.37
11468;BME280;5790;42.762;23.430;2023-04-01T05:53:33;72447.50;;;-142.66;84.90
11468;BME280;5790;42.762;23.430;2023-04-01T05:56:02;72435.25;;;-142.66;84.88
11468;BME280;5790;42.762;23.430;2023-04-01T05:58:29;72437.31;;;-142.66;84.44
11468;BME280;5790;42.762;23.430;2023-04-01T06:01:01;72402.59;;;-142.66;84.30
11468;BME280;5790;42.762;23.430;2023-04-01T06:03:29;72384.25;;;-142.66;83.48
11468;BME280;5790;42.762;23.430;2023-04-01T06:05:57;72396.50;;;-142.66;83.40
11468;BME280;5790;42.762;23.430;2023-04-01T06:08:27;72372.00;;;-142.66;83.76
11468;BME280;5790;42.762;23.430;2023-04-01T06:11:07;72347.50;;;-142.66;83.66
11468;BME280;5790;42.762;23.430;2023-04-01T06:13:52;72343.44;;;-142.66;82.35
11468;BME280;5790;42.762;23.430;2023-04-01T06:16:35;72333.22;;;-142.66;82.37
11468;BME280;5790;42.762;23.430;2023-04-01T06:19:16;72331.19;;;-142.66;82.95
11468;BME280;5790;42.762;23.430;2023-04-01T06:22:22;72314.84;;;-142.66;83.74
11468;BME280;5790;42.762;23.430;2023-04-01T06:28:06;72276.09;;;-142.66;85.15
11468;BME280;5790;42.762;23.430;2023-04-01T06:30:41;72263.84;;;-142.66;85.15
11468;BME280;5790;42.762;23.430;2023-04-01T06:33:23;72251.59;;;-142.66;83.24
11468;BME280;5790;42.762;23.430;2023-04-01T06:36:11;72227.09;;;-142.66;83.28
11468;BME280;5790;42.762;23.430;2023-04-01T06:44:33;72145.47;;;-142.66;78.35
11468;BME280;5790;42.762;23.430;2023-04-01T06:47:12;72129.16;;;-142.66;73.97
11468;BME280;5790;42.762;23.430;2023-04-01T06:49:52;72100.59;;;-142.66;74.58
11468;BME280;5790;42.762;23.430;2023-04-01T06:52:26;72084.25;;;-142.66;73.02
11468;BME280;5790;42.762;23.430;2023-04-01T06:55:02;72078.13;;;-142.66;70.79
11468;BME280;5790;42.762;23.430;2023-04-01T06:57:34;72067.94;;;-142.66;69.96
11468;BME280;5790;42.762;23.430;2023-04-01T07:00:14;72051.59;;;-142.66;69.68
11468;BME280;5790;42.762;23.430;2023-04-01T07:02:48;72043.44;;;-142.66;65.52
11468;BME280;5790;42.762;23.430;2023-04-01T07:05:22;72031.19;;;-142.66;67.39
11468;BME280;5790;42.762;23.430;2023-04-01T07:07:52;72018.97;;;-142.66;67.04
11468;BME280;5790;42.762;23.430;2023-04-01T07:10:28;72018.97;;;-142.66;63.96
11468;BME280;5790;42.762;23.430;2023-04-01T07:13:00;72004.69;;;-142.66;65.80
11468;BME280;5790;42.762;23.430;2023-04-01T07:15:33;72006.72;;;-142.66;65.56
11468;BME280;5790;42.762;23.430;2023-04-01T07:18:07;72008.75;;;-142.66;66.16
11468;BME280;5790;42.762;23.430;2023-04-01T07:20:38;71996.50;;;-142.66;67.93
11468;BME280;5790;42.762;23.430;2023-04-01T07:23:10;71984.28;;;-142.66;68.41
11468;BME280;5790;42.762;23.430;2023-04-01T07:25:44;71994.47;;;-142.66;68.63
11468;BME280;5790;42.762;23.430;2023-04-01T07:28:15;71984.28;;;-142.66;67.92
11468;BME280;5790;42.762;23.430;2023-04-01T07:30:49;71978.16;;;-142.66;67.13
11468;BME280;5790;42.762;23.430;2023-04-01T07:33:23;71963.88;;;-142.66;66.63
11468;BME280;5790;42.762;23.430;2023-04-01T07:36:01;71949.59;;;-142.66;67.57
11468;BME280;5790;42.762;23.430;2023-04-01T07:38:40;71939.38;;;-142.66;66.70
11468;BME280;5790;42.762;23.430;2023-04-01T07:41:19;71929.19;;;-142.66;64.92
11468;BME280;5790;42.762;23.430;2023-04-01T07:43:59;71921.00;;;-142.66;65.53
11468;BME280;5790;42.762;23.430;2023-04-01T07:49:30;71908.78;;;-142.66;62.52
11468;BME280;5790;42.762;23.430;2023-04-01T07:52:05;71896.53;;;-142.66;62.52
11468;BME280;5790;42.762;23.430;2023-04-01T07:54:40;71888.38;;;-142.66;63.44
11468;BME280;5790;42.762;23.430;2023-04-01T07:57:15;71890.41;;;-142.66;61.41
11468;BME280;5790;42.762;23.430;2023-04-01T07:59:53;71890.41;;;-142.66;61.18
11468;BME280;5790;42.762;23.430;2023-04-01T08:02:31;71878.16;;;-142.66;62.51
11468;BME280;5790;42.762;23.430;2023-04-01T08:05:06;71878.16;;;-142.66;64.37
11468;BME280;5790;42.762;23.430;2023-04-01T08:07:43;71878.16;;;-142.66;65.30
11468;BME280;5790;42.762;23.430;2023-04-01T08:10:17;71876.13;;;-142.66;63.68
11468;BME280;5790;42.762;23.430;2023-04-01T08:12:58;71867.97;;;-142.66;63.94
11468;BME280;5790;42.762;23.430;2023-04-01T08:15:33;71853.69;;;-142.66;65.73
11468;BME280;5790;42.762;23.430;2023-04-01T08:18:12;71851.63;;;-142.66;65.21
11468;BME280;5790;42.762;23.430;2023-04-01T08:20:47;71857.75;;;-142.66;62.41
11468;BME280;5790;42.762;23.430;2023-04-01T08:23:18;71851.63;;;-142.66;62.92
11468;BME280;5790;42.762;23.430;2023-04-01T08:25:52;71849.59;;;-142.66;62.70
11468;BME280;5790;42.762;23.430;2023-04-01T08:28:27;71849.59;;;-142.66;63.44
11468;BME280;5790;42.762;23.430;2023-04-01T08:30:59;71835.31;;;-142.66;64.12
11468;BME280;5790;42.762;23.430;2023-04-01T08:33:29;71839.41;;;-142.66;63.58
11468;BME280;5790;42.762;23.430;2023-04-01T08:36:01;71833.28;;;-142.66;63.42
11468;BME280;5790;42.762;23.430;2023-04-01T08:38:32;71841.44;;;-142.66;64.95
11468;BME280;5790;42.762;23.430;2023-04-01T08:47:40;71770.03;;;-142.66;64.18
11468;BME280;5790;42.762;23.430;2023-04-01T08:50:29;71731.25;;;-142.66;62.55
11468;BME280;5790;42.762;23.430;2023-04-01T08:53:07;71700.66;;;-142.66;63.54
11468;BME280;5790;42.762;23.430;2023-04-01T08:55:47;71670.03;;;-142.66;60.68
11468;BME280;5790;42.762;23.430;2023-04-01T08:58:42;71637.41;;;-142.66;60.48
11468;BME280;5790;42.762;23.430;2023-04-01T09:01:22;71625.16;;;-142.66;61.43
11468;BME280;5790;42.762;23.430;2023-04-01T09:04:14;71614.94;;;-142.66;58.77
11468;BME280;5790;42.762;23.430;2023-04-01T09:06:58;71637.41;;;-142.66;60.54
11468;BME280;5790;42.762;23.430;2023-04-01T09:10:02;71610.88;;;-142.66;57.70
11468;BME280;5790;42.762;23.430;2023-04-01T09:12:59;71574.16;;;-142.66;57.56
11468;BME280;5790;42.762;23.430;2023-04-01T09:15:42;71580.28;;;-142.66;58.07
11468;BME280;5790;42.762;23.430;2023-04-01T09:18:38;71568.03;;;-142.66;57.51
11468;BME280;5790;42.762;23.430;2023-04-01T09:21:22;71570.06;;;-142.66;56.99
11468;BME280;5790;42.762;23.430;2023-04-01T09:24:31;71570.06;;;-142.66;56.80
11468;BME280;5790;42.762;23.430;2023-04-01T09:27:04;71559.88;;;-142.66;56.10
11468;BME280;5790;42.762;23.430;2023-04-01T09:29:56;71551.72;;;-142.66;55.34
11468;BME280;5790;42.762;23.430;2023-04-01T09:35:36;71549.66;;;-142.66;54.64
11468;BME280;5790;42.762;23.430;2023-04-01T09:38:21;71539.47;;;-142.66;55.94
11468;BME280;5790;42.762;23.430;2023-04-01T09:40:55;71541.50;;;-142.66;54.40
11468;BME280;5790;42.762;23.430;2023-04-01T09:43:27;71529.25;;;-142.66;54.56
11468;BME280;5790;42.762;23.430;2023-04-01T09:46:18;71519.06;;;-142.66;55.60
11468;BME280;5790;42.762;23.430;2023-04-01T09:49:07;71519.06;;;-142.66;55.41
11468;BME280;5790;42.762;23.430;2023-04-01T09:51:47;71512.94;;;-142.66;54.89
11468;BME280;5790;42.762;23.430;2023-04-01T09:54:31;71504.78;;;-142.66;55.77
11468;BME280;5790;42.762;23.430;2023-04-01T09:57:27;71496.63;;;-142.66;56.52
11468;BME280;5790;42.762;23.430;2023-04-01T10:00:44;71498.66;;;-142.66;54.67
11468;BME280;5790;42.762;23.430;2023-04-01T10:16:02;71433.38;;;-142.66;53.24
11468;BME280;5790;42.762;23.430;2023-04-01T10:27:53;71404.81;;;-142.66;51.16
11468;BME280;5790;42.762;23.430;2023-04-01T10:33:51;71427.25;;;-142.66;50.40
11468;BME280;5790;42.762;23.430;2023-04-01T10:36:50;71429.28;;;-142.66;51.86
11468;BME280;5790;42.762;23.430;2023-04-01T10:39:48;71439.50;;;-142.66;52.13
11468;BME280;5790;42.762;23.430;2023-04-01T10:42:56;71453.78;;;-142.66;50.81
11468;BME280;5790;42.762;23.430;2023-04-01T10:48:50;71472.13;;;-142.66;51.50
11468;BME280;5790;42.762;23.430;2023-04-01T10:54:36;71480.28;;;-142.66;51.09
11468;BME280;5790;42.762;23.430;2023-04-01T10:57:20;71474.19;;;-142.66;51.42
11468;BME280;5790;42.762;23.430;2023-04-01T11:00:24;71457.84;;;-142.66;52.82
11468;BME280;5790;42.762;23.430;2023-04-01T11:09:35;71474.19;;;-142.66;54.77
11468;BME280;5790;42.762;23.430;2023-04-01T11:12:46;71468.06;;;-142.66;54.76
11468;BME280;5790;42.762;23.430;2023-04-01T11:15:49;71484.38;;;-142.66;55.55
11468;BME280;5790;42.762;23.430;2023-04-01T11:19:08;71492.53;;;-142.66;56.67
11468;BME280;5790;42.762;23.430;2023-04-01T11:28:01;71494.56;;;-142.66;55.39
11468;BME280;5790;42.762;23.430;2023-04-01T11:30:57;71488.47;;;-142.66;56.13
11468;BME280;5790;42.762;23.430;2023-04-01T11:33:31;71504.78;;;-142.66;55.50
11468;BME280;5790;42.762;23.430;2023-04-01T11:36:20;71508.84;;;-142.66;54.14
11468;BME280;5790;42.762;23.430;2023-04-01T11:39:03;71508.84;;;-142.66;53.56
11468;BME280;5790;42.762;23.430;2023-04-01T11:41:41;71523.13;;;-142.66;53.30
11468;BME280;5790;42.762;23.430;2023-04-01T11:44:18;71517.03;;;-142.66;52.99
11468;BME280;5790;42.762;23.430;2023-04-01T11:47:02;71572.09;;;-142.66;55.88
11468;BME280;5790;42.762;23.430;2023-04-01T11:49:47;71627.19;;;-142.66;59.36
11468;BME280;5790;42.762;23.430;2023-04-01T11:52:47;71700.66;;;-142.66;65.40
11468;BME280;5790;42.762;23.430;2023-04-01T11:55:32;71908.78;;;-142.66;81.87
11468;BME280;5790;42.762;23.430;2023-04-01T11:58:21;72053.66;;;-142.66;92.82
11468;BME280;5790;42.762;23.430;2023-04-01T12:01:07;72104.66;;;-142.66;99.32
11468;BME280;5790;42.762;23.430;2023-04-01T12:03:51;72151.59;;;-142.66;100.00
11468;BME280;5790;42.762;23.430;2023-04-01T12:06:30;72196.50;;;-142.66;100.00
11468;BME280;5790;42.762;23.430;2023-04-01T12:09:10;72214.84;;;-142.66;100.00
11468;BME280;5790;42.762;23.430;2023-04-01T12:11:45;72227.09;;;-142.66;100.00
11468;BME280;5790;42.762;23.430;2023-04-01T12:14:22;72235.28;;;-142.66;100.00
11468;BME280;5790;42.762;23.430;2023-04-01T12:17:01;72241.38;;;-142.66;100.00
11468;BME280;5790;42.762;23.430;2023-04-01T12:19:39;72227.09;;;-142.66;100.00
11468;BME280;5790;42.762;23.430;2023-04-01T12:22:21;72206.69;;;-142.66;100.00
11468;BME280;5790;42.762;23.430;2023-04-01T12:24:58;72216.91;;;-142.66;100.00
11468;BME280;5790;42.762;23.430;2023-04-01T12:27:41;72208.75;;;-142.66;100.00
11468;BME280;5790;42.762;23.430;2023-04-01T12:36:18;72161.81;;;-142.66;100.00
11468;BME280;5790;42.762;23.430;2023-04-01T12:38:58;72139.34;;;-142.66;100.00
11468;BME280;5790;42.762;23.430;2023-04-01T12:41:39;72133.22;;;-142.66;100.00
11468;BME280;5790;42.762;23.430;2023-04-01T12:47:26;72118.94;;;-142.66;100.00
11468;BME280;5790;42.762;23.430;2023-04-01T12:50:22;72116.91;;;-142.66;100.00
11468;BME280;5790;42.762;23.430;2023-04-01T12:53:00;72104.66;;;-142.66;100.00
11468;BME280;5790;42.762;23.430;2023-04-01T12:55:39;72086.31;;;-142.66;100.00
11468;BME280;5790;42.762;23.430;2023-04-01T13:01:28;72061.81;;;-142.66;100.00
11468;BME280;5790;42.762;23.430;2023-04-01T13:04:12;72047.53;;;-142.66;100.00
11468;BME280;5790;42.762;23.430;2023-04-01T13:06:58;72051.59;;;-142.66;100.00
11468;BME280;5790;42.762;23.430;2023-04-01T13:09:39;72023.03;;;-142.66;100.00
11468;BME280;5790;42.762;23.430;2023-04-01T13:12:26;72010.81;;;-142.66;100.00
11468;BME280;5790;42.762;23.430;2023-04-01T13:15:20;72021.00;;;-142.66;99.96
11468;BME280;5790;42.762;23.430;2023-04-01T13:17:53;71996.50;;;-142.66;97.47
11468;BME280;5790;42.762;23.430;2023-04-01T13:20:37;71990.41;;;-142.66;95.87
11468;BME280;5790;42.762;23.430;2023-04-01T13:23:30;71970.00;;;-142.66;99.65
11468;BME280;5790;42.762;23.430;2023-04-01T13:26:07;71953.66;;;-142.66;95.21
11468;BME280;5790;42.762;23.430;2023-04-01T13:28:43;71929.19;;;-142.66;93.99
11468;BME280;5790;42.762;23.430;2023-04-01T13:31:27;71908.78;;;-142.66;94.51
11468;BME280;5790;42.762;23.430;2023-04-01T13:34:04;71898.56;;;-142.66;90.31
11468;BME280;5790;42.762;23.430;2023-04-01T13:36:38;71916.94;;;-142.66;88.10
11468;BME280;5790;42.762;23.430;2023-04-01T13:39:25;71900.63;;;-142.66;88.71
11468;BME280;5790;42.762;23.430;2023-04-01T13:42:06;71900.63;;;-142.66;89.51
11468;BME280;5790;42.762;23.430;2023-04-01T13:44:43;71900.63;;;-142.66;90.32
11468;BME280;5790;42.762;23.430;2023-04-01T13:47:46;71929.19;;;-142.66;86.70
11468;BME280;5790;42.762;23.430;2023-04-01T13:50:58;71916.94;;;-142.66;86.11
11468;BME280;5790;42.762;23.430;2023-04-01T13:53:47;71886.31;;;-142.66;84.96
11468;BME280;5790;42.762;23.430;2023-04-01T13:56:37;71910.81;;;-142.66;82.85
11468;BME280;5790;42.762;23.430;2023-04-01T13:59:38;71906.72;;;-142.66;83.44
11468;BME280;5790;42.762;23.430;2023-04-01T14:08:00;71872.03;;;-142.66;81.23
11468;BME280;5790;42.762;23.430;2023-04-01T14:10:40;71859.81;;;-142.66;82.81
11468;BME280;5790;42.762;23.430;2023-04-01T14:13:17;71839.41;;;-142.66;82.66
11468;BME280;5790;42.762;23.430;2023-04-01T14:16:04;71845.53;;;-142.66;81.40
11468;BME280;5790;42.762;23.430;2023-04-01T14:18:46;71837.34;;;-142.66;80.23
11468;BME280;5790;42.762;23.430;2023-04-01T14:21:32;71841.44;;;-142.66;79.04
11468;BME280;5790;42.762;23.430;2023-04-01T14:24:20;71802.66;;;-142.66;81.19
11468;BME280;5790;42.762;23.430;2023-04-01T14:27:22;71794.50;;;-142.66;80.45
11468;BME280;5790;42.762;23.430;2023-04-01T14:30:24;71765.94;;;-142.66;79.05
11468;BME280;5790;42.762;23.430;2023-04-01T14:33:01;71757.78;;;-142.66;79.05
11468;BME280;5790;42.762;23.430;2023-04-01T14:35:37;71749.63;;;-142.66;77.73
11468;BME280;5790;42.762;23.430;2023-04-01T14:41:06;71747.56;;;-142.66;78.04
11468;BME280;5790;42.762;23.430;2023-04-01T14:43:49;71743.50;;;-142.66;75.30
11468;BME280;5790;42.762;23.430;2023-04-01T14:46:35;71735.34;;;-142.66;76.95
11468;BME280;5790;42.762;23.430;2023-04-01T14:49:16;71767.97;;;-142.66;75.97
11468;BME280;5790;42.762;23.430;2023-04-01T14:51:47;71770.03;;;-142.66;75.61